Time;durP1;ratioP1;P1;durP2;ratioP2;P2;SDS_P1;SDS_P2;PMS_P1;PMS_P2;Temp;Humidity;BMP_temperature;BMP_pressure;BME280_temperature;BME280_humidity;BME280_pressure;Samples;Min_cycle;Max_cycle;Signal;HPM_P1;HPM_P2
2022/12/04 00:00:26;;;;;;;40.27;18.87;;;1.90;99.90;;;;;;5039453;28;20279;-56
2022/12/04 00:02:53;;;;;;;49.97;20.93;;;1.80;99.90;;;;;;5040822;28;20201;-55
2022/12/04 00:05:20;;;;;;;47.47;19.73;;;1.90;99.90;;;;;;5037872;28;20217;-55
2022/12/04 00:07:46;;;;;;;48.50;20.50;;;1.90;99.90;;;;;;5039442;28;20243;-54
2022/12/04 00:10:13;;;;;;;47.97;19.93;;;2.10;99.90;;;;;;5038843;28;20343;-53
2022/12/04 00:12:40;;;;;;;45.10;19.50;;;1.90;99.90;;;;;;5039695;28;20238;-55
2022/12/04 00:15:08;;;;;;;43.70;20.17;;;1.90;99.90;;;;;;5038544;28;20213;-54
2022/12/04 00:17:51;;;;;;;47.87;20.90;;;1.90;99.90;;;;;;5038038;28;20203;-53
2022/12/04 00:20:18;;;;;;;44.37;20.80;;;1.90;99.90;;;;;;5037926;28;20211;-54
2022/12/04 00:22:45;;;;;;;44.33;19.23;;;1.90;99.90;;;;;;5038132;28;20294;-55
2022/12/04 00:25:12;;;;;;;41.83;20.00;;;1.90;99.90;;;;;;5038635;28;20215;-55
2022/12/04 00:27:39;;;;;;;47.33;19.90;;;1.90;99.90;;;;;;5038273;28;20283;-55
2022/12/04 00:30:07;;;;;;;43.33;19.47;;;1.80;99.90;;;;;;5038340;28;20218;-55
2022/12/04 00:32:34;;;;;;;45.63;21.33;;;1.90;99.90;;;;;;5037190;28;20632;-55
2022/12/04 00:35:00;;;;;;;41.57;18.13;;;1.90;99.90;;;;;;5036612;28;20223;-56
2022/12/04 00:37:27;;;;;;;45.70;20.00;;;1.80;99.90;;;;;;5036861;28;20700;-54
2022/12/04 00:39:54;;;;;;;45.10;20.93;;;1.80;99.90;;;;;;5038929;28;20199;-55
2022/12/04 00:42:21;;;;;;;44.57;20.03;;;1.80;99.90;;;;;;5037233;28;20220;-55
2022/12/04 00:44:48;;;;;;;46.30;19.63;;;1.80;99.90;;;;;;5037340;28;20641;-55
2022/12/04 00:47:15;;;;;;;45.57;20.73;;;1.90;99.90;;;;;;5038064;28;20196;-55
2022/12/04 00:49:41;;;;;;;46.10;21.30;;;1.90;99.90;;;;;;5036710;28;20215;-55
2022/12/04 00:52:08;;;;;;;44.20;21.27;;;1.90;99.90;;;;;;5038143;28;20201;-56
2022/12/04 00:54:35;;;;;;;50.53;20.60;;;1.90;99.90;;;;;;5038133;28;20893;-55
2022/12/04 00:57:02;;;;;;;48.13;20.37;;;1.90;99.90;;;;;;5020265;28;20265;-56
2022/12/04 00:59:28;;;;;;;48.53;21.13;;;1.80;99.90;;;;;;5038280;28;20698;-55
2022/12/04 01:01:55;;;;;;;50.93;21.67;;;1.90;99.90;;;;;;5039689;28;20249;-55
2022/12/04 01:04:22;;;;;;;48.00;20.20;;;1.80;99.90;;;;;;5036417;28;20283;-56
2022/12/04 01:06:49;;;;;;;50.70;21.47;;;1.90;99.90;;;;;;5036751;28;20735;-56
2022/12/04 01:09:16;;;;;;;37.20;19.33;;;1.80;99.90;;;;;;5037830;28;20290;-58
2022/12/04 01:11:43;;;;;;;47.87;21.23;;;1.80;99.90;;;;;;5038241;28;20803;-55
2022/12/04 01:14:09;;;;;;;50.80;21.03;;;1.90;99.90;;;;;;5037235;28;20581;-56
2022/12/04 01:16:38;;;;;;;42.47;19.37;;;1.90;99.90;;;;;;5038574;28;20208;-56
2022/12/04 01:19:08;;;;;;;45.00;20.90;;;2.00;99.90;;;;;;5037885;28;20234;-56
2022/12/04 01:21:36;;;;;;;47.90;21.47;;;2.00;99.90;;;;;;5036490;28;20636;-55
2022/12/04 01:24:03;;;;;;;44.70;19.63;;;1.90;99.90;;;;;;5038938;28;20363;-55
2022/12/04 01:26:30;;;;;;;45.40;19.50;;;1.90;99.90;;;;;;5027701;28;20244;-55
2022/12/04 01:28:57;;;;;;;47.10;19.90;;;2.00;99.90;;;;;;5018809;28;20299;-56
2022/12/04 01:31:24;;;;;;;41.77;19.63;;;2.00;99.90;;;;;;5017381;28;20301;-56
2022/12/04 01:33:51;;;;;;;47.87;22.00;;;2.00;99.90;;;;;;5017423;28;20728;-55
2022/12/04 01:36:20;;;;;;;42.03;19.97;;;2.00;99.90;;;;;;5017178;28;20298;-55
2022/12/04 01:38:47;;;;;;;46.30;20.43;;;1.90;99.90;;;;;;5016297;28;20209;-55
2022/12/04 01:41:16;;;;;;;41.07;19.50;;;1.80;99.90;;;;;;5016817;28;20291;-61
2022/12/04 01:43:43;;;;;;;45.80;21.50;;;1.90;99.90;;;;;;4999194;28;20246;-56
2022/12/04 01:46:10;;;;;;;42.40;19.70;;;1.90;99.90;;;;;;5017944;28;20212;-54
2022/12/04 01:48:47;;;;;;;43.83;20.90;;;1.90;99.90;;;;;;5030784;28;20256;-56
2022/12/04 01:51:23;;;;;;;48.00;21.17;;;1.90;99.90;;;;;;5016882;28;20208;-55
2022/12/04 01:53:54;;;;;;;40.63;18.63;;;1.90;99.90;;;;;;5016448;28;20226;-55
2022/12/04 01:56:45;;;;;;;43.17;20.77;;;2.00;99.90;;;;;;5015548;28;20609;-56
2022/12/04 01:59:16;;;;;;;48.70;21.07;;;2.00;99.90;;;;;;5017771;28;20335;-56
2022/12/04 02:01:51;;;;;;;42.57;18.97;;;2.10;99.90;;;;;;5016866;28;20219;-56
2022/12/04 02:04:18;;;;;;;38.27;19.87;;;2.00;99.90;;;;;;5016542;28;20204;-54
2022/12/04 02:06:45;;;;;;;44.40;20.53;;;2.00;99.90;;;;;;5016656;28;20212;-56
2022/12/04 02:09:12;;;;;;;46.23;20.70;;;2.10;99.90;;;;;;5015033;28;20278;-55
2022/12/04 02:12:11;;;;;;;46.03;21.60;;;2.10;99.90;;;;;;5016575;28;20260;-56
2022/12/04 02:14:56;;;;;;;43.40;21.23;;;2.10;99.90;;;;;;4987606;28;20600;-55
2022/12/04 02:17:31;;;;;;;38.70;19.27;;;1.90;99.90;;;;;;5032771;28;20724;-55
2022/12/04 02:20:32;;;;;;;43.53;19.80;;;1.90;99.90;;;;;;5016490;28;20216;-56
2022/12/04 02:23:23;;;;;;;48.37;20.90;;;2.00;99.90;;;;;;5017119;28;20199;-56
2022/12/04 02:25:50;;;;;;;45.87;20.60;;;1.90;99.90;;;;;;5016402;28;20207;-55
2022/12/04 02:28:41;;;;;;;41.70;19.17;;;1.80;99.90;;;;;;5037372;28;20210;-55
2022/12/04 02:31:14;;;;;;;41.57;19.57;;;1.90;99.90;;;;;;5036747;28;20725;-56
2022/12/04 02:34:02;;;;;;;45.53;21.00;;;1.90;99.90;;;;;;5055213;28;20289;-56
2022/12/04 02:36:35;;;;;;;47.53;20.57;;;2.00;99.90;;;;;;5056342;28;20232;-55
2022/12/04 02:39:23;;;;;;;41.23;21.00;;;1.90;99.90;;;;;;5055674;28;20553;-55
2022/12/04 02:42:24;;;;;;;46.43;20.50;;;1.90;99.90;;;;;;5056203;28;20217;-55
2022/12/04 02:45:02;;;;;;;42.63;20.23;;;2.00;99.90;;;;;;5057602;28;20743;-55
2022/12/04 02:47:29;;;;;;;49.80;21.27;;;2.00;99.90;;;;;;5056442;28;20234;-55
2022/12/04 02:50:00;;;;;;;45.87;21.03;;;2.00;99.90;;;;;;5056164;28;20237;-57
2022/12/04 02:52:32;;;;;;;45.40;20.97;;;2.00;99.90;;;;;;5058869;28;20213;-56
2022/12/04 02:55:04;;;;;;;43.50;21.60;;;2.10;99.90;;;;;;5060112;28;20219;-61
2022/12/04 02:57:41;;;;;;;44.80;19.57;;;2.00;99.90;;;;;;5061891;28;20670;-56
2022/12/04 03:00:09;;;;;;;49.43;21.73;;;2.10;99.90;;;;;;5060567;28;20633;-55
2022/12/04 03:02:54;;;;;;;45.03;21.27;;;2.10;99.90;;;;;;5061115;28;20199;-55
2022/12/04 03:05:28;;;;;;;50.17;21.50;;;1.90;99.90;;;;;;5059144;28;20206;-55
2022/12/04 03:07:59;;;;;;;45.37;21.17;;;2.00;99.90;;;;;;5059275;28;20728;-55
2022/12/04 03:10:31;;;;;;;44.23;21.07;;;2.00;99.90;;;;;;5060319;28;20689;-56
2022/12/04 03:13:14;;;;;;;45.63;21.87;;;2.10;99.90;;;;;;5059970;28;20234;-55
2022/12/04 03:15:45;;;;;;;45.00;21.80;;;2.00;99.90;;;;;;5060078;28;20580;-57
2022/12/04 03:18:41;;;;;;;45.63;20.50;;;2.00;99.90;;;;;;5059610;28;20287;-55
2022/12/04 03:21:13;;;;;;;49.13;20.93;;;2.00;99.90;;;;;;5057784;28;20214;-56
2022/12/04 03:23:49;;;;;;;46.77;21.50;;;2.00;99.90;;;;;;5043861;28;20198;-55
2022/12/04 03:26:34;;;;;;;50.20;21.97;;;1.90;99.90;;;;;;5060386;28;20243;-56
2022/12/04 03:29:22;;;;;;;46.93;20.33;;;2.10;99.90;;;;;;5059606;28;20987;-55
2022/12/04 03:32:09;;;;;;;46.87;21.90;;;2.10;99.90;;;;;;5060231;28;20569;-55
2022/12/04 03:35:08;;;;;;;46.70;20.50;;;1.90;99.90;;;;;;5061064;28;20325;-56
2022/12/04 03:37:45;;;;;;;45.40;21.23;;;2.10;99.90;;;;;;5058463;28;20203;-55
2022/12/04 03:40:29;;;;;;;39.77;18.93;;;2.00;99.90;;;;;;5059866;28;20210;-55
2022/12/04 03:43:01;;;;;;;44.77;20.07;;;1.90;99.90;;;;;;5074721;28;20217;-56
2022/12/04 03:45:42;;;;;;;46.30;22.63;;;1.90;99.90;;;;;;5057689;28;20842;-56
2022/12/04 03:48:25;;;;;;;43.13;20.67;;;1.90;99.90;;;;;;5059989;28;20261;-56
2022/12/04 03:50:57;;;;;;;44.97;19.93;;;1.90;99.90;;;;;;5058739;28;20218;-56
2022/12/04 03:53:40;;;;;;;44.37;21.17;;;2.10;99.90;;;;;;5058448;28;20222;-56
2022/12/04 03:56:13;;;;;;;45.60;20.87;;;1.90;99.90;;;;;;5044127;28;20274;-56
2022/12/04 03:58:45;;;;;;;46.13;20.73;;;2.00;99.90;;;;;;5058747;28;20697;-55
2022/12/04 04:01:14;;;;;;;49.63;22.40;;;2.00;99.90;;;;;;5059599;28;20207;-55
2022/12/04 04:03:54;;;;;;;47.43;21.97;;;1.90;99.90;;;;;;5058320;28;20282;-55
2022/12/04 04:06:29;;;;;;;44.03;20.23;;;1.90;99.90;;;;;;5057391;28;20200;-55
2022/12/04 04:09:00;;;;;;;49.40;20.57;;;2.10;99.90;;;;;;5056032;28;20762;-56
2022/12/04 04:11:33;;;;;;;45.23;21.23;;;1.90;99.90;;;;;;5058640;28;20770;-56
2022/12/04 04:26:12;;;;;;;51.90;21.93;;;1.80;99.90;;;;;;5058856;28;20341;-56
2022/12/04 04:28:40;;;;;;;45.70;21.73;;;1.90;99.90;;;;;;5060715;28;20222;-56
2022/12/04 04:31:13;;;;;;;46.70;21.57;;;1.90;99.90;;;;;;5057943;28;20305;-55
2022/12/04 04:34:00;;;;;;;49.57;21.27;;;1.90;99.90;;;;;;5058712;28;20547;-56
2022/12/04 04:36:53;;;;;;;43.40;20.53;;;1.90;99.90;;;;;;5037700;28;20243;-55
2022/12/04 04:39:35;;;;;;;48.10;21.00;;;1.90;99.90;;;;;;5073712;28;20297;-57
2022/12/04 04:42:26;;;;;;;46.50;22.10;;;1.80;99.90;;;;;;5059159;28;20207;-56
2022/12/04 04:45:04;;;;;;;45.57;22.53;;;1.90;99.90;;;;;;5059761;28;20207;-56
2022/12/04 04:47:37;;;;;;;45.80;19.73;;;1.90;99.90;;;;;;5058122;28;20221;-56
2022/12/04 04:50:07;;;;;;;45.37;20.17;;;1.80;99.90;;;;;;5057327;28;20209;-55
2022/12/04 04:52:36;;;;;;;51.23;22.17;;;1.80;99.90;;;;;;5058194;28;20203;-55
2022/12/04 04:55:04;;;;;;;47.40;22.27;;;1.90;99.90;;;;;;5057905;28;20222;-55
2022/12/04 04:57:34;;;;;;;46.90;21.67;;;1.90;99.90;;;;;;5058841;28;20286;-55
2022/12/04 05:00:05;;;;;;;53.07;24.23;;;2.00;99.90;;;;;;5058817;28;20206;-56
2022/12/04 05:02:32;;;;;;;46.80;20.97;;;2.10;99.90;;;;;;5056260;28;20294;-55
2022/12/04 05:04:59;;;;;;;52.53;22.53;;;2.10;99.90;;;;;;5055243;28;21126;-56
2022/12/04 05:07:26;;;;;;;39.63;20.93;;;2.00;99.90;;;;;;5056561;28;20208;-56
2022/12/04 05:09:53;;;;;;;46.30;22.40;;;2.10;99.90;;;;;;5058469;28;20207;-55
2022/12/04 05:12:20;;;;;;;47.00;22.87;;;2.00;99.90;;;;;;5058893;28;20208;-54
2022/12/04 05:14:47;;;;;;;46.83;20.50;;;2.00;99.90;;;;;;5055863;28;20301;-60
2022/12/04 05:17:14;;;;;;;51.37;21.90;;;2.00;99.90;;;;;;5056333;28;20210;-55
2022/12/04 05:19:53;;;;;;;45.87;20.67;;;2.00;99.90;;;;;;5056409;28;20655;-55
2022/12/04 05:22:28;;;;;;;48.83;22.20;;;2.10;99.90;;;;;;5055430;28;20195;-55
2022/12/04 05:24:55;;;;;;;50.20;21.10;;;2.00;99.90;;;;;;5057948;28;20213;-55
2022/12/04 05:27:24;;;;;;;42.73;21.47;;;1.90;99.90;;;;;;5057990;28;20331;-54
2022/12/04 05:29:52;;;;;;;49.13;22.30;;;2.00;99.90;;;;;;5057941;28;20324;-57
2022/12/04 05:32:21;;;;;;;47.63;20.77;;;2.00;99.90;;;;;;5057306;28;20655;-55
2022/12/04 05:34:53;;;;;;;45.57;21.33;;;2.00;99.90;;;;;;5056334;28;20226;-54
2022/12/04 05:37:20;;;;;;;43.07;20.53;;;2.10;99.90;;;;;;5056606;28;20777;-54
2022/12/04 05:39:47;;;;;;;48.83;21.30;;;2.00;99.90;;;;;;5058491;28;20207;-55
2022/12/04 05:42:14;;;;;;;50.30;22.67;;;2.00;99.90;;;;;;5057436;28;20204;-55
2022/12/04 05:44:41;;;;;;;47.53;21.03;;;1.90;99.90;;;;;;5057324;28;20210;-55
2022/12/04 05:47:08;;;;;;;44.47;20.13;;;2.00;99.90;;;;;;5057195;28;20229;-55
2022/12/04 05:49:34;;;;;;;45.77;20.30;;;1.90;99.90;;;;;;5057279;28;20221;-55
2022/12/04 05:52:03;;;;;;;47.77;20.67;;;1.90;99.90;;;;;;5056128;28;20225;-55
2022/12/04 05:54:30;;;;;;;47.47;20.70;;;2.00;99.90;;;;;;5056950;28;20203;-55
2022/12/04 05:56:57;;;;;;;43.63;21.23;;;2.00;99.90;;;;;;5057836;28;20221;-55
2022/12/04 05:59:24;;;;;;;43.50;20.13;;;1.90;99.90;;;;;;5057002;28;20705;-54
2022/12/04 06:01:51;;;;;;;50.53;21.10;;;2.00;99.90;;;;;;5072625;28;20214;-54
2022/12/04 06:04:17;;;;;;;50.70;21.83;;;2.00;99.90;;;;;;5056330;28;20203;-55
2022/12/04 06:06:44;;;;;;;47.33;21.50;;;2.00;99.90;;;;;;5055843;28;20290;-55
2022/12/04 06:09:11;;;;;;;48.13;22.63;;;2.10;99.90;;;;;;5057882;28;20249;-54
2022/12/04 06:11:40;;;;;;;48.40;20.90;;;2.00;99.90;;;;;;5040890;28;20631;-55
2022/12/04 06:14:10;;;;;;;42.90;20.77;;;1.90;99.90;;;;;;5057983;28;20207;-55
2022/12/04 06:16:39;;;;;;;46.27;22.17;;;1.90;99.90;;;;;;5057670;28;20225;-54
2022/12/04 06:19:09;;;;;;;44.33;22.03;;;1.90;99.90;;;;;;5057911;28;20665;-55
2022/12/04 06:21:38;;;;;;;42.63;19.97;;;1.90;99.90;;;;;;5056197;28;20215;-55
2022/12/04 06:24:07;;;;;;;41.80;19.90;;;1.90;99.90;;;;;;5056424;28;20652;-54
2022/12/04 06:26:33;;;;;;;44.37;20.73;;;1.90;99.90;;;;;;5056929;28;20242;-54
2022/12/04 06:29:00;;;;;;;45.37;20.70;;;2.00;99.90;;;;;;5057398;28;20571;-55
2022/12/04 06:31:28;;;;;;;44.13;22.27;;;2.10;99.90;;;;;;5057365;28;20293;-59
2022/12/04 06:33:57;;;;;;;48.87;22.23;;;2.00;99.90;;;;;;5057672;28;20673;-55
2022/12/04 06:36:24;;;;;;;47.47;22.83;;;2.00;99.90;;;;;;5056624;28;20720;-55
2022/12/04 06:38:54;;;;;;;41.87;20.70;;;2.00;99.90;;;;;;5054276;28;20234;-55
2022/12/04 06:41:22;;;;;;;44.40;20.40;;;2.10;99.90;;;;;;5057793;28;20559;-56
2022/12/04 06:43:50;;;;;;;43.90;19.73;;;2.20;99.90;;;;;;5057556;28;20751;-55
2022/12/04 06:46:19;;;;;;;43.23;21.23;;;2.10;99.90;;;;;;5057638;28;20256;-55
2022/12/04 06:48:49;;;;;;;42.30;20.73;;;2.00;99.90;;;;;;5056921;28;20704;-56
2022/12/04 06:51:19;;;;;;;44.87;20.90;;;2.10;99.90;;;;;;5056467;28;20254;-55
2022/12/04 06:53:46;;;;;;;46.07;20.80;;;2.00;99.90;;;;;;5055330;28;20256;-54
2022/12/04 06:56:16;;;;;;;40.63;20.50;;;2.10;99.90;;;;;;5057779;28;20231;-55
2022/12/04 06:58:49;;;;;;;48.63;19.77;;;1.90;99.90;;;;;;5056858;28;20990;-55
2022/12/04 07:01:19;;;;;;;46.77;21.67;;;1.90;99.90;;;;;;5053989;28;20724;-54
2022/12/04 07:03:46;;;;;;;41.90;19.87;;;2.10;99.90;;;;;;5056513;28;20282;-55
2022/12/04 07:06:26;;;;;;;45.63;20.50;;;2.00;99.90;;;;;;5056339;28;20203;-56
2022/12/04 07:08:57;;;;;;;41.63;20.17;;;1.80;99.90;;;;;;5056937;28;20555;-55
2022/12/04 07:11:24;;;;;;;44.03;20.20;;;2.00;99.90;;;;;;5056682;28;20296;-54
2022/12/04 07:13:51;;;;;;;42.13;19.07;;;2.00;99.90;;;;;;5058452;28;20202;-55
2022/12/04 07:16:20;;;;;;;39.57;20.00;;;2.00;99.90;;;;;;5055876;28;20220;-55
2022/12/04 07:18:52;;;;;;;38.43;18.30;;;2.10;99.90;;;;;;5057648;28;20265;-55
2022/12/04 07:21:22;;;;;;;38.13;19.90;;;2.10;99.90;;;;;;5055970;28;20616;-55
2022/12/04 07:23:50;;;;;;;42.00;19.80;;;2.00;99.90;;;;;;5056377;28;20196;-54
2022/12/04 07:26:18;;;;;;;44.53;19.63;;;1.90;99.90;;;;;;5055784;28;20373;-55
2022/12/04 07:28:45;;;;;;;43.27;20.23;;;1.90;99.90;;;;;;5058709;28;21869;-55
2022/12/04 07:31:17;;;;;;;37.90;19.33;;;2.00;99.90;;;;;;5056343;28;20216;-55
2022/12/04 07:33:45;;;;;;;40.20;19.60;;;1.90;99.90;;;;;;5056827;28;20691;-59
2022/12/04 07:36:14;;;;;;;45.17;19.23;;;1.90;99.90;;;;;;5055763;28;20254;-54
2022/12/04 07:38:42;;;;;;;41.37;19.57;;;1.90;99.90;;;;;;5041523;28;20195;-55
2022/12/04 07:41:11;;;;;;;45.07;19.70;;;1.80;99.90;;;;;;5059907;28;20551;-55
2022/12/04 07:43:38;;;;;;;40.23;18.67;;;1.90;99.90;;;;;;5061386;28;20615;-54
2022/12/04 07:46:11;;;;;;;45.57;20.33;;;1.90;99.90;;;;;;5058350;28;20217;-55
2022/12/04 07:48:38;;;;;;;36.83;18.63;;;1.90;99.90;;;;;;5059114;28;20223;-54
2022/12/04 07:51:09;;;;;;;37.57;18.37;;;1.90;99.90;;;;;;5057179;28;20291;-64
2022/12/04 07:53:37;;;;;;;46.03;22.90;;;1.90;99.90;;;;;;5058854;28;20638;-56
2022/12/04 07:56:05;;;;;;;35.87;17.77;;;2.00;99.90;;;;;;5059092;28;20592;-55
2022/12/04 07:58:33;;;;;;;40.83;17.57;;;2.00;99.90;;;;;;5060088;28;20923;-55
2022/12/04 08:01:09;;;;;;;38.37;18.20;;;1.90;99.90;;;;;;5059246;28;20238;-54
2022/12/04 08:03:37;;;;;;;36.40;17.83;;;1.90;99.90;;;;;;5058951;28;20198;-56
2022/12/04 08:06:13;;;;;;;41.07;19.63;;;1.80;99.90;;;;;;5057855;28;20192;-54
2022/12/04 08:08:39;;;;;;;41.43;19.40;;;1.90;99.90;;;;;;5059715;28;20238;-55
2022/12/04 08:11:08;;;;;;;37.10;18.37;;;1.80;99.90;;;;;;5071475;28;20236;-54
2022/12/04 08:13:35;;;;;;;39.07;18.50;;;1.90;99.90;;;;;;5059112;28;20212;-53
2022/12/04 08:16:04;;;;;;;38.50;18.53;;;1.90;99.90;;;;;;5059676;28;20245;-55
2022/12/04 08:18:31;;;;;;;34.47;16.97;;;1.90;99.90;;;;;;5060051;28;20931;-55
2022/12/04 08:21:10;;;;;;;35.20;18.00;;;1.90;99.90;;;;;;5057581;28;20544;-53
2022/12/04 08:23:38;;;;;;;39.90;17.87;;;2.00;99.90;;;;;;5058249;28;20190;-54
2022/12/04 08:26:06;;;;;;;37.93;17.63;;;1.90;99.90;;;;;;5059343;28;20680;-55
2022/12/04 08:28:33;;;;;;;42.37;18.77;;;2.00;99.90;;;;;;5059898;28;20208;-55
2022/12/04 08:31:07;;;;;;;37.57;18.17;;;2.00;99.90;;;;;;5057381;28;20633;-58
2022/12/04 08:33:34;;;;;;;39.73;19.03;;;2.00;99.90;;;;;;5059060;28;20569;-55
2022/12/04 08:36:04;;;;;;;35.43;17.93;;;2.00;99.90;;;;;;5057535;28;20216;-55
2022/12/04 08:38:31;;;;;;;38.37;17.80;;;2.00;99.90;;;;;;5057851;28;20218;-54
2022/12/04 08:41:00;;;;;;;36.93;19.53;;;2.00;99.90;;;;;;5058035;28;20676;-56
2022/12/04 08:43:27;;;;;;;38.17;18.43;;;2.00;99.90;;;;;;5058167;28;20632;-59
2022/12/04 08:45:59;;;;;;;36.63;19.53;;;2.10;99.90;;;;;;5056511;28;20287;-60
2022/12/04 08:48:26;;;;;;;37.37;17.90;;;2.20;99.90;;;;;;5057253;28;20259;-54
2022/12/04 08:50:53;;;;;;;40.03;17.97;;;2.20;99.90;;;;;;5057835;28;20216;-57
2022/12/04 08:53:21;;;;;;;36.17;17.17;;;2.20;99.90;;;;;;5057259;28;20569;-53
2022/12/04 08:55:48;;;;;;;38.60;17.87;;;2.10;99.90;;;;;;5057256;28;20263;-55
2022/12/04 08:58:15;;;;;;;34.50;16.83;;;2.20;99.90;;;;;;5047778;28;20212;-55
2022/12/04 09:00:42;;;;;;;33.47;15.80;;;2.20;99.90;;;;;;5056316;28;20207;-55
2022/12/04 09:03:14;;;;;;;34.60;17.27;;;2.20;99.90;;;;;;5057888;28;20210;-55
2022/12/04 09:05:44;;;;;;;36.73;17.67;;;2.20;99.90;;;;;;5056599;28;20242;-55
2022/12/04 09:08:16;;;;;;;33.60;17.33;;;2.20;99.90;;;;;;5038746;28;20212;-53
2022/12/04 09:10:43;;;;;;;40.10;18.43;;;2.10;99.90;;;;;;5060114;28;20312;-55
2022/12/04 09:13:10;;;;;;;36.90;15.77;;;2.10;99.90;;;;;;5072758;28;20305;-55
2022/12/04 09:15:40;;;;;;;35.97;18.40;;;2.20;99.90;;;;;;5040125;28;20314;-55
2022/12/04 09:18:07;;;;;;;33.03;16.47;;;2.20;99.90;;;;;;5058713;28;20253;-55
2022/12/04 09:20:35;;;;;;;31.87;16.33;;;2.30;99.90;;;;;;5057036;28;20202;-55
2022/12/04 09:23:03;;;;;;;34.40;16.03;;;2.30;99.90;;;;;;5055544;28;20196;-55
2022/12/04 09:25:34;;;;;;;31.80;15.53;;;2.40;99.90;;;;;;5057909;28;20203;-55
2022/12/04 09:28:01;;;;;;;29.70;14.93;;;2.40;99.90;;;;;;5058324;28;20318;-53
2022/12/04 09:30:28;;;;;;;31.60;16.53;;;2.30;99.90;;;;;;5058197;28;20249;-55
2022/12/04 09:32:55;;;;;;;32.27;16.27;;;2.30;99.90;;;;;;5057949;28;20223;-54
2022/12/04 09:35:22;;;;;;;31.27;14.70;;;2.30;99.90;;;;;;5056450;28;20270;-55
2022/12/04 09:37:48;;;;;;;32.70;16.23;;;2.20;99.90;;;;;;5058020;28;20205;-55
2022/12/04 09:40:28;;;;;;;35.60;16.63;;;2.40;99.90;;;;;;5056850;28;20267;-55
2022/12/04 09:43:15;;;;;;;30.73;16.10;;;2.30;99.90;;;;;;5057346;28;20257;-56
2022/12/04 09:45:51;;;;;;;28.70;14.80;;;2.40;99.90;;;;;;5057634;28;20222;-55
2022/12/04 09:48:20;;;;;;;33.70;16.03;;;2.40;99.90;;;;;;5058525;28;20749;-54
2022/12/04 09:50:49;;;;;;;30.63;14.03;;;2.40;99.90;;;;;;5057322;28;20334;-54
2022/12/04 09:53:23;;;;;;;29.87;15.03;;;2.40;99.90;;;;;;5058053;28;20194;-55
2022/12/04 09:56:10;;;;;;;30.23;14.30;;;2.40;99.90;;;;;;5056555;28;20295;-55
2022/12/04 09:58:48;;;;;;;28.43;14.27;;;2.40;99.90;;;;;;5039739;28;20288;-54
2022/12/04 10:01:30;;;;;;;27.80;13.63;;;2.40;99.90;;;;;;5057690;28;20579;-56
2022/12/04 10:03:57;;;;;;;27.60;13.87;;;2.40;99.90;;;;;;5059027;28;20253;-55
2022/12/04 10:07:07;;;;;;;30.97;13.80;;;2.40;99.90;;;;;;5057210;28;20228;-55
2022/12/04 10:09:40;;;;;;;24.13;12.43;;;2.20;99.90;;;;;;5046585;28;20665;-55
2022/12/04 10:13:01;;;;;;;24.63;11.90;;;2.20;99.90;;;;;;5057964;28;20281;-56
2022/12/04 10:16:03;;;;;;;26.87;12.67;;;2.20;99.90;;;;;;5036824;28;20236;-54
2022/12/04 10:19:08;;;;;;;27.53;12.80;;;2.30;99.90;;;;;;5028079;28;20199;-55
2022/12/04 10:21:52;;;;;;;25.10;12.57;;;2.30;99.90;;;;;;5055372;28;20581;-56
2022/12/04 10:24:29;;;;;;;23.60;12.27;;;2.20;99.90;;;;;;5057556;28;20215;-55
2022/12/04 10:27:00;;;;;;;23.43;12.00;;;2.30;99.90;;;;;;5057785;28;20675;-55
2022/12/04 10:29:31;;;;;;;21.30;12.10;;;2.30;99.90;;;;;;5057434;28;21053;-55
2022/12/04 10:32:14;;;;;;;26.53;12.70;;;2.20;99.90;;;;;;5057689;28;20681;-56
2022/12/04 10:34:43;;;;;;;24.57;11.43;;;2.20;99.90;;;;;;5072795;28;20203;-55
2022/12/04 10:37:13;;;;;;;22.30;11.10;;;2.20;99.90;;;;;;5054385;28;20241;-56
2022/12/04 10:39:42;;;;;;;24.20;12.57;;;2.30;99.90;;;;;;5056344;28;20196;-56
2022/12/04 10:42:16;;;;;;;25.63;12.30;;;2.30;99.90;;;;;;5058386;28;20297;-58
2022/12/04 10:44:43;;;;;;;24.80;12.73;;;2.30;99.90;;;;;;5057331;28;20613;-58
2022/12/04 10:47:12;;;;;;;28.10;12.60;;;2.30;99.90;;;;;;5056850;28;20231;-56
2022/12/04 10:49:39;;;;;;;22.07;12.57;;;2.30;99.90;;;;;;5057572;28;20216;-55
2022/12/04 10:52:12;;;;;;;24.67;12.73;;;2.30;99.90;;;;;;5057125;28;20208;-55
2022/12/04 10:54:54;;;;;;;23.73;12.70;;;2.30;99.90;;;;;;5058438;28;20628;-54
2022/12/04 10:57:21;;;;;;;28.70;13.27;;;2.40;99.90;;;;;;5072095;28;20263;-55
2022/12/04 10:59:51;;;;;;;22.57;12.27;;;2.40;99.90;;;;;;5058268;28;20204;-56
2022/12/04 11:02:20;;;;;;;24.43;12.37;;;2.30;99.90;;;;;;5057084;28;20511;-55
2022/12/04 11:04:58;;;;;;;26.97;12.53;;;2.40;99.90;;;;;;5055325;28;20205;-55
2022/12/04 11:07:29;;;;;;;24.77;12.53;;;2.20;99.90;;;;;;5057329;28;20206;-55
2022/12/04 11:10:17;;;;;;;24.60;12.00;;;2.30;99.90;;;;;;5039790;28;20204;-55
2022/12/04 11:13:01;;;;;;;25.47;13.23;;;2.20;99.90;;;;;;5057883;28;20204;-56
2022/12/04 11:15:28;;;;;;;24.50;13.60;;;2.20;99.90;;;;;;5060695;28;20292;-55
2022/12/04 11:18:07;;;;;;;24.37;12.10;;;2.20;99.90;;;;;;5060530;28;20217;-54
2022/12/04 11:20:34;;;;;;;24.77;11.53;;;2.30;99.90;;;;;;5059957;28;20213;-55
2022/12/04 11:23:01;;;;;;;24.93;12.27;;;2.20;99.90;;;;;;5060807;28;20205;-55
2022/12/04 11:25:36;;;;;;;23.43;11.90;;;2.20;99.90;;;;;;5061060;28;20205;-54
2022/12/04 11:28:04;;;;;;;25.77;12.70;;;2.30;99.90;;;;;;5059847;28;20238;-54
2022/12/04 11:30:34;;;;;;;23.43;12.43;;;2.20;99.90;;;;;;5060632;28;20211;-56
2022/12/04 11:33:03;;;;;;;21.97;10.97;;;2.30;99.90;;;;;;5060258;28;20211;-55
2022/12/04 11:35:31;;;;;;;23.37;11.97;;;2.20;99.90;;;;;;5059559;28;20325;-55
2022/12/04 11:38:13;;;;;;;24.53;12.50;;;2.20;99.90;;;;;;5061271;28;20266;-55
2022/12/04 11:40:55;;;;;;;20.50;10.87;;;2.20;99.90;;;;;;5061116;28;20207;-55
2022/12/04 11:43:28;;;;;;;19.90;11.63;;;2.30;99.90;;;;;;5060324;28;20255;-55
2022/12/04 11:46:01;;;;;;;26.80;12.30;;;2.20;99.90;;;;;;5060376;28;21075;-55
2022/12/04 11:48:30;;;;;;;23.77;11.60;;;2.10;99.90;;;;;;5060497;28;20307;-55
2022/12/04 11:51:17;;;;;;;21.23;11.17;;;2.00;99.90;;;;;;5059442;28;20263;-56
2022/12/04 11:53:50;;;;;;;20.17;11.43;;;2.00;99.90;;;;;;5059095;28;20199;-54
2022/12/04 11:56:35;;;;;;;20.83;10.47;;;1.90;99.90;;;;;;5059279;28;20204;-54
2022/12/04 11:59:07;;;;;;;22.73;11.73;;;2.00;99.90;;;;;;5059423;28;20206;-55
2022/12/04 12:01:48;;;;;;;20.10;10.83;;;2.00;99.90;;;;;;5060181;28;20290;-54
2022/12/04 12:04:42;;;;;;;24.23;12.13;;;2.00;99.90;;;;;;5059282;28;20258;-55
2022/12/04 12:07:29;;;;;;;22.83;11.60;;;2.00;99.90;;;;;;5059678;28;20208;-55
2022/12/04 12:09:58;;;;;;;21.00;12.33;;;2.10;99.90;;;;;;5059643;28;20230;-55
2022/12/04 12:12:37;;;;;;;21.27;10.57;;;2.10;99.90;;;;;;5059529;28;20571;-55
2022/12/04 12:15:18;;;;;;;20.07;10.47;;;2.20;99.90;;;;;;5057947;28;20204;-55
2022/12/04 12:18:04;;;;;;;23.07;11.43;;;2.20;99.90;;;;;;5059637;28;20241;-55
2022/12/04 12:20:39;;;;;;;17.63;10.40;;;2.20;99.90;;;;;;5058081;28;20296;-55
2022/12/04 12:23:22;;;;;;;21.53;11.03;;;2.20;99.90;;;;;;5059681;28;20287;-56
2022/12/04 12:26:03;;;;;;;20.63;12.07;;;2.10;99.90;;;;;;5058557;28;20203;-54
2022/12/04 12:28:58;;;;;;;19.37;10.00;;;2.20;99.90;;;;;;5059073;28;20207;-57
2022/12/04 12:32:09;;;;;;;20.40;10.90;;;2.20;99.90;;;;;;5059492;28;20676;-55
2022/12/04 12:34:43;;;;;;;20.90;10.73;;;2.10;99.90;;;;;;5058313;28;20215;-55
2022/12/04 12:37:38;;;;;;;19.70;10.80;;;2.20;99.90;;;;;;5059720;28;20220;-56
2022/12/04 12:40:22;;;;;;;20.10;10.30;;;2.30;99.90;;;;;;5058989;28;20291;-56
2022/12/04 12:43:04;;;;;;;19.03;11.10;;;2.30;99.90;;;;;;5059322;28;20312;-56
2022/12/04 12:45:59;;;;;;;19.63;11.23;;;2.30;99.90;;;;;;5058693;28;20211;-55
2022/12/04 12:48:34;;;;;;;17.07;10.10;;;2.30;99.90;;;;;;5059486;28;20199;-55
2022/12/04 12:51:07;;;;;;;22.00;10.90;;;2.30;99.90;;;;;;5059056;28;20298;-56
2022/12/04 12:54:17;;;;;;;19.20;10.27;;;2.30;99.90;;;;;;5059148;28;20647;-55
2022/12/04 12:56:51;;;;;;;19.47;12.23;;;2.30;99.90;;;;;;5072179;28;20710;-61
2022/12/04 12:59:25;;;;;;;21.30;11.40;;;2.50;99.90;;;;;;5058969;28;20224;-56
2022/12/04 13:01:57;;;;;;;17.67;10.17;;;2.50;99.90;;;;;;5056728;28;20209;-55
2022/12/04 13:04:48;;;;;;;19.07;10.17;;;2.30;99.90;;;;;;5057753;28;20572;-55
2022/12/04 13:07:25;;;;;;;20.70;11.60;;;2.30;99.90;;;;;;5058875;28;20218;-55
2022/12/04 13:10:10;;;;;;;19.87;10.73;;;2.20;99.90;;;;;;5058854;28;20215;-56
2022/12/04 13:12:59;;;;;;;19.03;11.03;;;2.20;99.90;;;;;;5059201;28;20274;-56
2022/12/04 13:15:40;;;;;;;16.77;10.10;;;2.30;99.90;;;;;;5057779;28;20199;-55
2022/12/04 13:18:14;;;;;;;19.00;11.30;;;2.30;99.90;;;;;;5057127;28;20307;-56